This is the latest recevied weather packets stored in our database for station/object KF0RZX-13. If no packets are shown the sender has not sent any weather packets the latest 10 day(s).
| Time | Temp. | Humidity | Pressure | Rain* | Wind** | Luminosity | Snow |
|---|---|---|---|---|---|---|---|
| 1787468051 | 21.11° C | 83% | 1023.7 hPa | 0 mm | - | - | - |
| 1787466246 | 21.11° C | 88% | 1024.4 hPa | 0 mm | - | - | - |
| 1787464441 | 22.22° C | 78% | 1024 hPa | 0 mm | - | - | - |
| 1787462636 | 22.22° C | 78% | 1024.4 hPa | 0 mm | - | - | - |
| 1787460832 | 22.22° C | 78% | 1024.4 hPa | 0 mm | - | - | - |
| 1787459026 | 22.22° C | 78% | 1023.7 hPa | 0 mm | - | - | - |
| 1787457221 | 21.11° C | 83% | 1023.7 hPa | 0 mm | - | - | - |
| 1787455416 | 21.11° C | 83% | 1023.7 hPa | 0 mm | - | - | - |
| 1787453613 | 21.11° C | 83% | 1023.4 hPa | 0 mm | - | - | - |
| 1787451807 | 21.11° C | 78% | 1023.7 hPa | 0 mm | - | - | - |
| 1787449996 | 21.11° C | 73% | 1024.4 hPa | 0.51 mm | - | - | - |
| 1787448191 | 21.11° C | 78% | 1025.1 hPa | 0.25 mm | - | - | - |
| 1787446387 | 23.89° C | 57% | 1025.1 hPa | 0 mm | - | - | - |
| 1787444581 | 27.22° C | 51% | 1023.7 hPa | 0 mm | - | - | - |
| 1787442778 | 27.22° C | 54% | 1023.7 hPa | 0 mm | - | - | - |
| 1787440971 | 27.22° C | 51% | 1024.4 hPa | 0 mm | - | - | - |
| 1787439166 | 27.78° C | 48% | 1024 hPa | 0 mm | - | - | - |
| 1787437361 | 27.78° C | 48% | 1024.4 hPa | 0 mm | - | - | - |
| 1787435556 | 27.78° C | 48% | 1024.4 hPa | 0 mm | - | - | - |
| 1787433752 | 27.78° C | 48% | 1024.4 hPa | 0 mm | - | - | - |
| 1787431947 | 30° C | 43% | 1024.7 hPa | 0 mm | - | - | - |
| 1787430142 | 30° C | 43% | 1025.1 hPa | 0 mm | - | - | - |
| 1787428336 | 28.89° C | 45% | 1025.4 hPa | 0 mm | - | - | - |
| 1787426532 | 28.89° C | 48% | 1025.7 hPa | 0 mm | - | - | - |
| 1787424727 | 27.78° C | 48% | 1025.7 hPa | 0 mm | - | - | - |
* Rain latest hour (hover to see other rain measurements)
** Current wind speed in m/s (hover to see current wind gust speed)